Time;durP1;ratioP1;P1;durP2;ratioP2;P2;SDS_P1;SDS_P2;PMS_P1;PMS_P2;Temp;Humidity;BMP_temperature;BMP_pressure;BME280_temperature;BME280_humidity;BME280_pressure;Samples;Min_cycle;Max_cycle;Signal;HPM_P1;HPM_P2
2021/03/02 00:04:22;;;;;;;24.20;12.73;;;3.10;99.90;;;;;;21052296;28;20031;-76
2021/03/02 00:14:23;;;;;;;27.25;13.15;;;3.30;99.90;;;;;;21056484;28;20036;-77
2021/03/02 00:24:31;;;;;;;27.43;14.67;;;3.30;99.90;;;;;;21060001;28;20031;-76
2021/03/02 00:34:32;;;;;;;33.33;14.10;;;3.40;99.90;;;;;;21058570;28;20097;-76
2021/03/02 00:44:33;;;;;;;33.63;14.65;;;3.40;99.90;;;;;;21075820;28;20035;-77
2021/03/02 00:54:34;;;;;;;28.13;12.55;;;3.40;99.90;;;;;;21076010;28;20028;-76
2021/03/02 01:04:36;;;;;;;23.92;12.45;;;3.40;99.90;;;;;;21056968;28;20085;-77
2021/03/02 01:14:38;;;;;;;29.92;12.77;;;3.30;99.90;;;;;;21056498;28;20032;-76
2021/03/02 01:24:38;;;;;;;30.33;13.60;;;3.20;99.90;;;;;;21047236;22;20136;-76
2021/03/02 01:34:39;;;;;;;38.40;13.82;;;3.10;99.90;;;;;;20981816;28;20033;-76
2021/03/02 01:44:40;;;;;;;35.07;13.97;;;3.10;99.90;;;;;;20981259;28;20549;-76
2021/03/02 01:54:41;;;;;;;29.50;13.90;;;2.80;99.90;;;;;;20995646;28;20028;-76
2021/03/02 02:04:47;;;;;;;;;;;2.50;99.90;;;;;;20967473;28;20803;-76
2021/03/02 02:15:09;;;;;;;31.50;13.82;;;2.40;99.90;;;;;;21004789;28;19916;-77
2021/03/02 02:25:37;;;;;;;33.97;14.50;;;2.40;99.90;;;;;;21050101;28;20064;-76
2021/03/02 02:35:41;;;;;;;34.85;14.93;;;2.10;99.90;;;;;;21074724;28;20077;-77
2021/03/02 02:45:42;;;;;;;29.63;13.93;;;2.10;99.90;;;;;;20987965;28;20033;-76
2021/03/02 02:55:44;;;;;;;;;;;2.20;99.90;;;;;;21015741;28;20043;-77
2021/03/02 03:05:51;;;;;;;38.80;15.02;;;2.20;99.90;;;;;;21084138;28;19912;-77
2021/03/02 03:15:56;;;;;;;32.53;14.02;;;2.20;99.90;;;;;;21084169;28;20078;-75
2021/03/02 03:25:58;;;;;;;33.72;13.63;;;2.10;99.90;;;;;;21065299;28;20031;-76
2021/03/02 03:35:59;;;;;;;35.17;14.23;;;2.00;99.90;;;;;;21082277;28;20545;-77
2021/03/02 03:46:00;;;;;;;34.35;13.13;;;1.80;99.90;;;;;;21081507;28;20028;-76
2021/03/02 03:56:01;;;;;;;;;;;1.80;99.90;;;;;;21078355;28;20047;-74
2021/03/02 04:06:02;;;;;;;37.90;13.52;;;1.70;99.90;;;;;;21080036;28;19911;-76
2021/03/02 04:16:03;;;;;;;39.80;14.65;;;1.60;99.90;;;;;;21078157;28;20031;-76
2021/03/02 04:26:04;;;;;;;31.05;13.52;;;1.60;99.90;;;;;;21078553;28;20149;-76
2021/03/02 04:36:05;;;;;;;;;;;1.50;99.90;;;;;;21078033;28;20028;-75
2021/03/02 04:46:06;;;;;;;27.58;12.10;;;1.50;99.90;;;;;;21067903;28;20391;-77
2021/03/02 04:56:07;;;;;;;;;;;1.20;99.90;;;;;;21074412;28;20170;-77
2021/03/02 05:06:08;;;;;;;24.50;11.90;;;1.10;99.90;;;;;;21075365;28;20004;-76
2021/03/02 05:16:12;;;;;;;28.60;12.55;;;0.90;99.90;;;;;;21074755;28;20307;-75
2021/03/02 05:26:13;;;;;;;27.33;12.20;;;0.70;99.90;;;;;;21065659;28;20028;-75
2021/03/02 05:36:14;;;;;;;28.63;11.52;;;0.60;99.90;;;;;;21074010;28;20024;-75
2021/03/02 05:46:15;;;;;;;;;;;0.70;99.90;;;;;;21073860;28;20035;-74
2021/03/02 05:56:17;;;;;;;33.03;12.68;;;0.70;99.90;;;;;;21072979;28;20385;-74
2021/03/02 06:06:17;;;;;;;30.92;15.10;;;0.80;99.90;;;;;;21072980;28;20501;-74
2021/03/02 06:16:18;;;;;;;31.25;14.20;;;0.80;99.90;;;;;;21073483;28;20060;-74
2021/03/02 06:26:26;;;;;;;36.97;16.10;;;0.70;99.90;;;;;;21072949;28;20502;-76
2021/03/02 06:36:26;;;;;;;32.70;14.68;;;0.50;99.90;;;;;;21074393;28;20038;-77
2021/03/02 06:46:38;;;;;;;35.83;15.30;;;0.60;99.90;;;;;;21053968;28;20051;-76
2021/03/02 06:56:40;;;;;;;32.70;16.20;;;0.70;99.90;;;;;;21001245;28;20035;-76
2021/03/02 07:06:42;;;;;;;30.63;14.30;;;1.30;99.90;;;;;;21037583;28;20038;-75
2021/03/02 07:16:46;;;;;;;33.38;13.38;;;1.70;99.90;;;;;;21055701;28;20032;-76
2021/03/02 07:26:47;;;;;;;31.92;14.18;;;2.50;99.90;;;;;;20935580;28;20075;-77
2021/03/02 07:36:48;;;;;;;;;;;2.90;99.90;;;;;;20909885;28;20074;-76
2021/03/02 07:46:52;;;;;;;29.30;14.05;;;3.50;99.90;;;;;;20914774;28;19917;-76
2021/03/02 07:57:15;;;;;;;29.42;13.52;;;3.70;99.90;;;;;;20907072;28;20151;-76
2021/03/02 08:07:29;;;;;;;28.17;14.02;;;3.90;99.90;;;;;;20901962;28;20029;-77
2021/03/02 08:17:29;;;;;;;35.85;13.55;;;4.20;99.90;;;;;;20875985;28;20081;-76
2021/03/02 08:27:45;;;;;;;28.17;13.30;;;4.20;99.90;;;;;;20938113;28;20028;-76
2021/03/02 08:37:55;;;;;;;32.17;15.27;;;4.90;99.90;;;;;;20956273;22;20446;-79
2021/03/02 08:48:32;;;;;;;28.63;13.90;;;5.20;99.90;;;;;;20831070;28;20042;-80
2021/03/02 08:58:34;;;;;;;25.48;13.63;;;6.40;99.90;;;;;;20629163;28;20072;-80
2021/03/02 09:08:57;;;;;;;31.13;14.77;;;6.90;99.90;;;;;;20767039;28;20030;-79
2021/03/02 09:19:15;;;;;;;22.92;13.23;;;7.10;99.90;;;;;;20759226;28;20037;-78
2021/03/02 09:29:16;;;;;;;28.48;13.13;;;7.70;99.90;;;;;;20732674;28;20095;-80
2021/03/02 09:39:26;;;;;;;24.10;12.30;;;8.60;99.90;;;;;;20788905;28;20096;-80
2021/03/02 09:49:44;;;;;;;24.95;13.30;;;9.00;99.90;;;;;;20800990;28;20046;-79
2021/03/02 09:59:45;;;;;;;26.60;14.02;;;10.70;99.90;;;;;;20732474;28;20030;-80
2021/03/02 10:09:47;;;;;;;28.73;16.20;;;11.10;99.90;;;;;;20756266;28;20061;-79
2021/03/02 10:20:03;;;;;;;;;;;11.60;99.90;;;;;;20779279;28;20558;-79
2021/03/02 10:30:05;;;;;;;29.30;16.90;;;12.80;99.90;;;;;;20818080;28;19913;-79
2021/03/02 10:40:06;;;;;;;29.58;17.40;;;13.20;99.90;;;;;;20867220;28;20495;-79
2021/03/02 10:50:08;;;;;;;33.13;17.47;;;14.40;99.90;;;;;;20902370;28;20045;-79
2021/03/02 11:00:11;;;;;;;32.53;18.23;;;14.20;99.90;;;;;;20862733;28;20036;-76
2021/03/02 11:10:12;;;;;;;33.35;18.88;;;14.90;99.90;;;;;;20873864;28;20033;-79
2021/03/02 11:20:13;;;;;;;33.43;20.13;;;15.10;99.90;;;;;;20839806;28;20052;-77
2021/03/02 11:30:15;;;;;;;37.33;21.67;;;16.00;99.90;;;;;;20860462;28;20033;-76
2021/03/02 11:40:17;;;;;;;36.20;22.48;;;16.40;99.90;;;;;;20878793;28;20036;-78
2021/03/02 11:50:19;;;;;;;37.75;22.88;;;16.70;99.90;;;;;;20861729;28;20174;-79
2021/03/02 12:00:22;;;;;;;44.47;23.73;;;17.10;99.90;;;;;;20849256;28;20086;-78
2021/03/02 12:10:23;;;;;;;42.85;21.38;;;16.60;99.90;;;;;;20867430;28;20044;-76
2021/03/02 12:20:24;;;;;;;39.47;21.33;;;16.10;99.90;;;;;;20829483;28;20033;-78
2021/03/02 12:30:25;;;;;;;38.80;23.23;;;18.10;99.90;;;;;;20829189;28;20037;-76
2021/03/02 12:40:26;;;;;;;35.97;21.05;;;18.40;99.90;;;;;;20833051;28;20033;-79
2021/03/02 12:50:27;;;;;;;41.13;21.77;;;18.50;99.90;;;;;;20862215;28;20036;-77
2021/03/02 13:00:29;;;;;;;44.23;22.23;;;19.20;99.20;;;;;;20856126;28;20037;-78
2021/03/02 13:10:31;;;;;;;40.72;23.15;;;18.60;98.90;;;;;;20831864;28;20122;-78
2021/03/02 13:20:32;;;;;;;36.10;23.33;;;17.90;99.90;;;;;;20845600;28;20030;-78
2021/03/02 13:30:35;;;;;;;37.27;23.17;;;17.50;99.90;;;;;;20868152;28;20279;-77
2021/03/02 13:40:36;;;;;;;41.80;21.83;;;18.40;99.90;;;;;;20900936;28;20037;-79
2021/03/02 13:50:37;;;;;;;43.40;23.10;;;17.40;99.90;;;;;;20908831;28;20041;-79
2021/03/02 14:00:38;;;;;;;45.27;22.13;;;17.70;99.90;;;;;;20908074;28;20590;-77
2021/03/02 14:10:42;;;;;;;40.37;22.53;;;18.40;99.90;;;;;;20891658;28;20071;-78
2021/03/02 14:20:43;;;;;;;36.90;20.92;;;18.40;99.90;;;;;;20895840;28;20031;-77
2021/03/02 14:30:48;;;;;;;39.57;21.37;;;18.40;98.30;;;;;;20913912;28;20047;-77
2021/03/02 14:40:49;;;;;;;35.33;18.90;;;17.90;98.30;;;;;;20931070;22;20781;-76
2021/03/02 14:50:52;;;;;;;27.93;16.30;;;18.00;97.30;;;;;;20884770;28;20305;-76
2021/03/02 15:01:01;;;;;;;35.10;18.38;;;18.50;95.10;;;;;;20901082;28;20055;-77
2021/03/02 15:11:03;;;;;;;35.22;17.75;;;18.60;95.40;;;;;;20934146;28;20437;-75
2021/03/02 15:21:04;;;;;;;42.60;18.10;;;18.40;96.80;;;;;;20899248;28;20033;-74
2021/03/02 15:31:05;;;;;;;34.57;17.33;;;18.60;96.50;;;;;;20898659;28;20522;-76
2021/03/02 15:41:07;;;;;;;34.33;15.52;;;17.90;95.40;;;;;;20898187;28;20115;-75
2021/03/02 15:51:07;;;;;;;30.53;14.40;;;17.80;94.40;;;;;;20897499;28;20040;-75
2021/03/02 16:01:08;;;;;;;32.10;14.43;;;17.70;95.20;;;;;;20895502;28;20037;-77
2021/03/02 16:11:12;;;;;;;32.15;14.43;;;17.30;93.60;;;;;;20953032;28;20190;-77
2021/03/02 16:21:15;;;;;;;31.65;14.90;;;15.90;96.70;;;;;;20973342;28;20123;-77
2021/03/02 16:31:20;;;;;;;30.50;14.07;;;15.00;99.90;;;;;;20975295;28;20037;-76
2021/03/02 16:41:22;;;;;;;33.83;14.50;;;14.60;99.90;;;;;;20958791;28;20123;-75
2021/03/02 16:51:35;;;;;;;27.80;14.20;;;14.10;99.90;;;;;;20977093;28;20250;-76
2021/03/02 17:01:42;;;;;;;36.45;14.10;;;13.30;99.90;;;;;;20913806;28;20120;-76
2021/03/02 17:11:43;;;;;;;34.03;13.63;;;12.40;99.90;;;;;;20946299;28;20550;-77
2021/03/02 17:21:44;;;;;;;26.75;13.63;;;10.90;99.90;;;;;;20973376;28;20303;-76
2021/03/02 17:31:45;;;;;;;31.10;12.38;;;10.70;99.90;;;;;;20935417;28;20032;-77
2021/03/02 17:41:46;;;;;;;37.57;13.17;;;10.80;99.90;;;;;;20936226;28;20121;-76
2021/03/02 17:51:46;;;;;;;33.58;11.50;;;9.80;99.90;;;;;;20929907;28;20033;-77
2021/03/02 18:01:48;;;;;;;31.35;12.23;;;10.10;99.90;;;;;;20910707;28;20105;-77
2021/03/02 18:11:48;;;;;;;23.43;11.83;;;8.90;99.90;;;;;;20926274;28;20115;-76
2021/03/02 18:21:50;;;;;;;35.07;14.27;;;9.10;99.90;;;;;;20936793;28;20127;-75
2021/03/02 18:31:51;;;;;;;35.70;13.37;;;9.50;99.90;;;;;;20955508;28;20025;-77
2021/03/02 18:41:52;;;;;;;29.00;12.90;;;8.90;99.90;;;;;;20964328;28;20042;-77
2021/03/02 18:51:53;;;;;;;31.10;13.97;;;8.90;99.90;;;;;;20984579;28;20032;-76
2021/03/02 19:01:54;;;;;;;28.30;13.17;;;8.60;99.90;;;;;;20979187;28;20031;-75
2021/03/02 19:11:54;;;;;;;32.47;14.37;;;9.00;99.90;;;;;;20957754;28;20048;-76
2021/03/02 19:21:55;;;;;;;28.73;13.00;;;7.60;99.90;;;;;;20981027;28;20128;-76
2021/03/02 19:31:56;;;;;;;27.57;13.23;;;7.90;99.90;;;;;;20981127;28;20075;-76
2021/03/02 19:41:57;;;;;;;39.27;15.83;;;7.80;99.90;;;;;;20980293;28;20031;-76
2021/03/02 19:51:57;;;;;;;28.77;14.97;;;7.80;99.90;;;;;;20978956;28;20039;-76
2021/03/02 20:01:58;;;;;;;31.67;12.27;;;7.90;99.90;;;;;;20959609;28;20119;-76
2021/03/02 20:11:59;;;;;;;24.73;12.23;;;7.50;99.90;;;;;;20929150;28;20029;-77
2021/03/02 20:22:01;;;;;;;29.07;14.50;;;7.20;99.90;;;;;;20894233;28;20025;-77
2021/03/02 20:32:02;;;;;;;;;;;6.90;99.90;;;;;;20876086;28;20033;-76
2021/03/02 20:42:03;;;;;;;24.15;11.13;;;7.40;99.90;;;;;;20873854;28;19970;-75
2021/03/02 20:52:04;;;;;;;24.85;11.30;;;7.40;99.90;;;;;;20920311;28;20032;-75
2021/03/02 21:02:05;;;;;;;30.07;12.07;;;7.40;99.90;;;;;;20954418;28;20286;-76
2021/03/02 21:12:07;;;;;;;29.83;13.97;;;7.30;99.90;;;;;;20903081;28;20044;-75
2021/03/02 21:22:07;;;;;;;24.17;11.80;;;6.80;99.90;;;;;;20929988;28;20047;-75
2021/03/02 21:32:08;;;;;;;23.20;11.40;;;6.70;99.90;;;;;;20971442;28;20113;-76
2021/03/02 21:42:11;;;;;;;25.83;10.63;;;6.20;99.90;;;;;;20958087;28;20021;-76
2021/03/02 21:52:12;;;;;;;17.27;9.90;;;6.20;99.90;;;;;;20888699;28;20036;-75
2021/03/02 22:02:13;;;;;;;21.20;9.60;;;6.60;99.90;;;;;;20887548;28;20037;-75
2021/03/02 22:12:14;;;;;;;18.17;9.40;;;6.60;99.90;;;;;;20923988;28;20422;-76
2021/03/02 22:22:14;;;;;;;25.63;10.20;;;6.60;99.90;;;;;;20986882;28;20041;-76
2021/03/02 22:32:15;;;;;;;23.30;10.03;;;6.60;99.90;;;;;;20984171;28;20459;-76
2021/03/02 22:42:16;;;;;;;17.83;9.40;;;6.50;99.90;;;;;;20948045;28;20028;-76
2021/03/02 22:52:17;;;;;;;17.03;7.93;;;6.40;99.90;;;;;;20963376;28;20021;-75
2021/03/02 23:02:18;;;;;;;19.17;9.87;;;6.40;99.90;;;;;;20985628;28;20029;-76
2021/03/02 23:12:18;;;;;;;20.50;10.93;;;6.40;99.90;;;;;;20979317;28;20044;-75
2021/03/02 23:22:19;;;;;;;24.73;11.50;;;6.30;99.90;;;;;;20906051;28;20039;-76
2021/03/02 23:32:20;;;;;;;27.60;11.30;;;6.10;99.90;;;;;;20990480;28;20021;-76
2021/03/02 23:42:21;;;;;;;25.10;11.43;;;5.90;99.90;;;;;;20989419;28;20071;-75
2021/03/02 23:52:22;;;;;;;23.20;11.07;;;6.00;99.90;;;;;;20979689;28;20124;-77
